createdAt,value
2022-12-31T00:01:51.612Z,8.30
2022-12-31T00:04:18.566Z,8.30
2022-12-31T00:06:46.030Z,8.40
2022-12-31T00:09:13.061Z,8.50
2022-12-31T00:11:40.155Z,8.50
2022-12-31T00:14:07.338Z,8.60
2022-12-31T00:16:37.875Z,8.70
2022-12-31T00:19:06.317Z,8.80
2022-12-31T00:21:34.463Z,8.80
2022-12-31T00:24:01.552Z,8.80
2022-12-31T00:26:30.308Z,8.90
2022-12-31T00:28:58.582Z,9.00
2022-12-31T00:31:29.906Z,9.10
2022-12-31T00:33:57.702Z,9.10
2022-12-31T00:36:29.190Z,9.00
2022-12-31T00:38:57.762Z,9.10
2022-12-31T00:41:25.699Z,9.20
2022-12-31T00:43:52.763Z,9.30
2022-12-31T00:46:20.312Z,9.30
2022-12-31T00:48:47.641Z,9.40
2022-12-31T00:51:16.743Z,9.40
2022-12-31T00:53:43.682Z,9.50
2022-12-31T00:56:19.255Z,9.50
2022-12-31T00:58:46.340Z,9.70
2022-12-31T01:01:20.555Z,9.70
2022-12-31T01:03:49.095Z,9.70
2022-12-31T01:06:17.003Z,9.80
2022-12-31T01:08:44.513Z,9.80
2022-12-31T01:11:18.989Z,9.80
2022-12-31T01:13:54.331Z,9.80
2022-12-31T01:16:27.560Z,9.90
2022-12-31T01:18:54.922Z,9.90
2022-12-31T01:21:22.460Z,9.90
2022-12-31T01:23:49.789Z,9.90
2022-12-31T01:26:18.015Z,10.00
2022-12-31T01:28:44.830Z,10.00
2022-12-31T01:31:14.116Z,10.00
2022-12-31T01:33:41.480Z,10.10
2022-12-31T01:36:12.463Z,10.10
2022-12-31T01:38:39.910Z,10.20
2022-12-31T01:41:07.927Z,10.10
2022-12-31T01:43:46.057Z,10.10
2022-12-31T01:46:19.077Z,10.20
2022-12-31T01:48:49.804Z,10.20
2022-12-31T01:51:17.103Z,10.20
2022-12-31T01:53:44.211Z,10.10
2022-12-31T01:56:11.328Z,10.20
2022-12-31T01:58:45.875Z,10.20
2022-12-31T02:01:19.153Z,10.20
2022-12-31T02:03:46.159Z,10.30
2022-12-31T02:06:29.045Z,10.20
2022-12-31T02:08:57.717Z,10.20
2022-12-31T02:11:28.032Z,10.30
2022-12-31T02:13:58.911Z,10.30
2022-12-31T02:16:31.868Z,10.30
2022-12-31T02:19:03.102Z,10.30
2022-12-31T02:21:48.609Z,10.40
2022-12-31T02:24:29.281Z,10.40
2022-12-31T02:27:01.342Z,10.40
2022-12-31T02:30:04.038Z,10.40
2022-12-31T02:32:54.390Z,10.40
2022-12-31T02:35:29.271Z,10.50
2022-12-31T02:38:10.424Z,10.50
2022-12-31T02:40:39.067Z,10.50
2022-12-31T02:43:05.908Z,10.50
2022-12-31T02:45:41.135Z,10.60
2022-12-31T02:48:13.253Z,10.60
2022-12-31T02:50:56.581Z,10.70
2022-12-31T02:53:39.158Z,10.80
2022-12-31T02:56:34.802Z,10.90
2022-12-31T02:59:44.351Z,10.90
2022-12-31T03:02:15.677Z,10.90
2022-12-31T03:04:54.993Z,11.00
2022-12-31T03:07:27.805Z,11.00
2022-12-31T03:09:55.652Z,10.90
2022-12-31T03:12:44.255Z,11.00
2022-12-31T03:15:21.776Z,11.00
2022-12-31T03:18:00.411Z,11.10
2022-12-31T03:20:53.826Z,11.00
2022-12-31T03:23:31.168Z,11.10
2022-12-31T03:25:59.255Z,11.00
2022-12-31T03:28:28.677Z,11.10
2022-12-31T03:30:58.973Z,11.00
2022-12-31T03:33:26.583Z,11.00
2022-12-31T03:35:55.673Z,11.00
2022-12-31T03:38:22.855Z,11.00
2022-12-31T03:40:51.936Z,11.10
2022-12-31T03:43:19.986Z,11.00
2022-12-31T03:45:53.829Z,11.00
2022-12-31T03:48:22.349Z,11.00
2022-12-31T03:50:49.901Z,11.10
2022-12-31T03:53:17.227Z,11.00
2022-12-31T03:55:44.517Z,11.00
2022-12-31T03:58:11.413Z,11.10
2022-12-31T04:00:38.396Z,11.00
2022-12-31T04:03:06.274Z,11.10
2022-12-31T04:05:33.676Z,11.10
2022-12-31T04:08:00.859Z,11.10
2022-12-31T04:10:27.607Z,11.00
2022-12-31T04:12:54.401Z,11.00
2022-12-31T04:15:22.015Z,11.00
2022-12-31T04:17:49.173Z,11.00
2022-12-31T04:20:16.323Z,11.10
2022-12-31T04:22:43.996Z,11.00
2022-12-31T04:25:12.823Z,11.10
2022-12-31T04:27:41.402Z,11.10
2022-12-31T04:30:09.805Z,11.00
2022-12-31T04:32:36.572Z,11.10
2022-12-31T04:35:03.571Z,11.10
2022-12-31T04:37:30.443Z,11.00
2022-12-31T04:40:03.549Z,11.10
2022-12-31T04:42:32.594Z,11.00
2022-12-31T04:44:59.380Z,11.00
2022-12-31T04:47:26.246Z,10.90
2022-12-31T04:49:53.093Z,10.90
2022-12-31T04:52:19.861Z,10.90
2022-12-31T04:54:46.689Z,10.90
2022-12-31T04:57:13.480Z,10.90
2022-12-31T04:59:40.266Z,11.00
2022-12-31T05:02:07.224Z,11.00
2022-12-31T05:04:34.082Z,11.00
2022-12-31T05:07:00.912Z,11.10
2022-12-31T05:09:28.311Z,11.10
2022-12-31T05:11:55.206Z,11.20
2022-12-31T05:14:22.512Z,11.30
2022-12-31T05:16:49.467Z,11.30
2022-12-31T05:19:16.395Z,11.30
2022-12-31T05:21:43.570Z,11.20
2022-12-31T05:24:10.411Z,11.10
2022-12-31T05:26:37.197Z,11.10
2022-12-31T05:29:04.004Z,11.10
2022-12-31T05:31:30.869Z,11.00
2022-12-31T05:33:57.812Z,10.90
2022-12-31T05:36:24.615Z,11.00
2022-12-31T05:38:51.408Z,10.90
2022-12-31T05:41:18.181Z,10.80
2022-12-31T05:43:45.044Z,10.90
2022-12-31T05:46:11.892Z,10.80
2022-12-31T05:48:38.754Z,10.90
2022-12-31T05:51:05.763Z,10.90
2022-12-31T05:53:34.326Z,10.80
2022-12-31T05:56:01.414Z,10.80
2022-12-31T05:58:28.296Z,10.80
2022-12-31T06:00:55.101Z,10.80
2022-12-31T06:03:22.052Z,10.80
2022-12-31T06:05:49.932Z,10.80
2022-12-31T06:08:16.837Z,10.90
2022-12-31T06:10:43.601Z,10.90
2022-12-31T06:13:10.527Z,10.90
2022-12-31T06:15:39.676Z,10.90
2022-12-31T06:18:06.930Z,11.00
2022-12-31T06:20:36.495Z,11.00
2022-12-31T06:23:04.270Z,11.00
2022-12-31T06:25:31.217Z,11.00
2022-12-31T06:27:58.098Z,11.10
2022-12-31T06:30:24.902Z,11.10
2022-12-31T06:32:51.697Z,11.20
2022-12-31T06:35:18.475Z,11.30
2022-12-31T06:37:45.244Z,11.30
2022-12-31T06:40:12.662Z,11.30
2022-12-31T06:42:39.713Z,11.40
2022-12-31T06:45:07.279Z,11.50
2022-12-31T06:47:34.154Z,11.60
2022-12-31T06:50:00.929Z,11.80
2022-12-31T06:52:27.841Z,12.00
2022-12-31T06:54:56.537Z,12.00
2022-12-31T06:57:23.634Z,12.30
2022-12-31T06:59:50.797Z,12.30
2022-12-31T07:02:23.333Z,12.40
2022-12-31T07:05:02.178Z,12.50
2022-12-31T07:07:40.795Z,12.60
2022-12-31T07:10:32.025Z,12.60
2022-12-31T07:13:21.592Z,12.80
2022-12-31T07:15:54.380Z,12.70
2022-12-31T07:18:36.474Z,12.80
2022-12-31T07:21:03.645Z,12.80
2022-12-31T07:23:31.042Z,12.90
2022-12-31T07:26:14.594Z,13.00
2022-12-31T07:28:58.242Z,13.20
2022-12-31T07:31:51.221Z,13.10
2022-12-31T07:34:36.594Z,13.20
2022-12-31T07:37:25.372Z,13.20
2022-12-31T07:40:01.092Z,13.30
2022-12-31T07:42:47.447Z,13.30
2022-12-31T07:45:26.608Z,13.40
2022-12-31T07:47:58.931Z,13.40
2022-12-31T07:50:29.628Z,13.50
2022-12-31T07:52:56.888Z,13.60
2022-12-31T07:55:23.655Z,13.60
2022-12-31T07:57:59.419Z,13.70
2022-12-31T08:00:27.681Z,13.80
2022-12-31T08:02:54.949Z,13.80
2022-12-31T08:05:49.675Z,13.80
2022-12-31T08:08:32.185Z,13.70
2022-12-31T08:11:30.157Z,13.80
2022-12-31T08:14:01.236Z,13.90
2022-12-31T08:16:28.670Z,14.00
2022-12-31T08:18:55.778Z,14.00
2022-12-31T08:21:30.998Z,14.10
2022-12-31T08:24:20.266Z,14.20
2022-12-31T08:27:17.106Z,14.20
2022-12-31T08:30:11.985Z,14.20
2022-12-31T08:32:53.557Z,14.30
2022-12-31T08:35:49.792Z,14.40
2022-12-31T08:39:03.928Z,14.50
2022-12-31T08:41:42.500Z,14.60
2022-12-31T08:44:53.736Z,14.60
2022-12-31T08:47:44.537Z,14.60
2022-12-31T08:50:18.764Z,14.70
2022-12-31T08:52:47.664Z,14.70
2022-12-31T08:55:16.470Z,14.80
2022-12-31T08:57:55.161Z,14.80
2022-12-31T09:00:22.896Z,14.90
2022-12-31T09:03:04.974Z,14.90
2022-12-31T09:06:08.547Z,14.90
2022-12-31T09:09:04.706Z,15.00
2022-12-31T09:11:51.572Z,15.10
2022-12-31T09:14:48.147Z,15.10
2022-12-31T09:17:33.832Z,15.10
2022-12-31T09:20:02.601Z,15.20
2022-12-31T09:22:29.635Z,15.20
2022-12-31T09:24:56.659Z,15.40
2022-12-31T09:27:49.461Z,15.40
2022-12-31T09:30:17.814Z,15.50
2022-12-31T09:33:00.761Z,15.50
2022-12-31T09:35:40.483Z,15.50
2022-12-31T09:38:20.306Z,15.60
2022-12-31T09:41:02.006Z,15.60
2022-12-31T09:44:21.391Z,15.70
2022-12-31T09:47:25.591Z,15.80
2022-12-31T09:49:55.619Z,15.80
2022-12-31T09:52:30.939Z,16.00
2022-12-31T09:55:16.441Z,16.10
2022-12-31T09:58:08.306Z,16.10
2022-12-31T10:01:02.106Z,16.20
2022-12-31T10:04:03.391Z,16.20
2022-12-31T10:06:57.577Z,16.20
2022-12-31T10:09:58.431Z,16.30
2022-12-31T10:12:59.183Z,16.40
2022-12-31T10:15:54.782Z,16.40
2022-12-31T10:19:04.226Z,16.50
2022-12-31T10:21:50.000Z,16.70
2022-12-31T10:24:58.511Z,16.80
2022-12-31T10:27:53.213Z,16.80
2022-12-31T10:30:22.870Z,16.90
2022-12-31T10:33:10.674Z,16.90
2022-12-31T10:35:40.349Z,17.00
2022-12-31T10:38:25.657Z,17.00
2022-12-31T10:41:33.612Z,17.00
2022-12-31T10:44:34.629Z,17.00
2022-12-31T10:47:22.205Z,17.00
2022-12-31T10:50:18.849Z,17.10
2022-12-31T10:52:54.111Z,17.10
2022-12-31T10:55:59.223Z,17.10
2022-12-31T10:58:45.449Z,17.20
2022-12-31T11:01:28.366Z,17.20
2022-12-31T11:04:20.350Z,17.30
2022-12-31T11:07:11.652Z,17.30
2022-12-31T11:09:57.012Z,17.40
2022-12-31T11:12:32.801Z,17.50
2022-12-31T11:15:11.578Z,17.50
2022-12-31T11:18:20.409Z,17.50
2022-12-31T11:21:06.808Z,17.50
2022-12-31T11:24:09.935Z,17.50
2022-12-31T11:26:45.816Z,17.60
2022-12-31T11:29:34.032Z,17.70
2022-12-31T11:32:12.370Z,17.80
2022-12-31T11:34:42.295Z,17.80
2022-12-31T11:37:27.053Z,17.80
2022-12-31T11:40:21.620Z,17.80
2022-12-31T11:43:03.560Z,17.90
2022-12-31T11:45:46.958Z,17.90
2022-12-31T11:48:34.240Z,17.90
2022-12-31T11:51:27.684Z,17.90
2022-12-31T11:54:32.093Z,17.80
2022-12-31T11:57:24.348Z,17.80
2022-12-31T11:59:59.629Z,17.80
2022-12-31T12:02:31.993Z,17.70
2022-12-31T12:05:08.434Z,17.70
2022-12-31T12:07:37.421Z,17.70
2022-12-31T12:10:31.966Z,17.70
2022-12-31T12:13:13.489Z,17.60
2022-12-31T12:15:45.547Z,17.60
2022-12-31T12:18:29.111Z,17.70
2022-12-31T12:21:22.012Z,17.60
2022-12-31T12:24:17.039Z,17.60
2022-12-31T12:26:45.381Z,17.60
2022-12-31T12:29:19.361Z,17.60
2022-12-31T12:32:02.974Z,17.60
2022-12-31T12:34:32.791Z,17.50
2022-12-31T12:36:59.985Z,17.50
2022-12-31T12:39:31.818Z,17.50
2022-12-31T12:42:01.702Z,17.50
2022-12-31T12:44:28.495Z,17.50
2022-12-31T12:46:56.101Z,17.50
2022-12-31T12:49:29.023Z,17.50
2022-12-31T12:52:08.083Z,17.50
2022-12-31T12:55:28.195Z,17.40
2022-12-31T12:58:00.470Z,17.40
2022-12-31T13:00:32.858Z,17.40
2022-12-31T13:03:35.222Z,17.50
2022-12-31T13:06:29.819Z,17.50
2022-12-31T13:09:29.212Z,17.60
2022-12-31T13:12:48.989Z,17.50
2022-12-31T13:15:41.201Z,17.60
2022-12-31T13:18:47.237Z,17.50
2022-12-31T13:21:14.039Z,17.60
2022-12-31T13:23:56.048Z,17.50
2022-12-31T13:26:45.261Z,17.40
2022-12-31T13:29:18.764Z,17.50
2022-12-31T13:31:47.455Z,17.60
2022-12-31T13:34:54.884Z,17.60
2022-12-31T13:37:22.980Z,17.60
2022-12-31T13:40:03.683Z,17.70
2022-12-31T13:42:45.871Z,17.70
2022-12-31T13:45:24.619Z,17.70
2022-12-31T13:47:58.485Z,17.70
2022-12-31T13:50:38.603Z,17.80
2022-12-31T13:53:36.168Z,17.90
2022-12-31T13:56:11.217Z,17.80
2022-12-31T13:59:05.334Z,17.80
2022-12-31T14:01:49.626Z,17.90
2022-12-31T14:04:30.390Z,17.90
2022-12-31T14:07:11.211Z,17.70
2022-12-31T14:09:38.337Z,17.70
2022-12-31T14:12:23.013Z,17.70
2022-12-31T14:15:01.097Z,17.60
2022-12-31T14:17:39.533Z,17.60
2022-12-31T14:20:14.827Z,17.60
2022-12-31T14:22:57.141Z,17.60
2022-12-31T14:25:34.482Z,17.60
2022-12-31T14:28:03.229Z,17.60
2022-12-31T14:30:35.258Z,17.50
2022-12-31T14:33:09.292Z,17.40
2022-12-31T14:36:19.830Z,17.30
2022-12-31T14:39:08.323Z,17.20
2022-12-31T14:41:55.370Z,17.20
2022-12-31T14:44:43.848Z,17.10
2022-12-31T14:47:10.704Z,17.00
2022-12-31T14:49:56.864Z,16.90
2022-12-31T14:52:47.318Z,16.90
2022-12-31T14:55:15.013Z,16.90
2022-12-31T14:58:25.718Z,16.80
2022-12-31T15:00:40.776Z,16.80
2022-12-31T15:03:23.740Z,16.80
2022-12-31T15:06:22.647Z,16.70
2022-12-31T15:09:28.801Z,16.80
2022-12-31T15:12:27.291Z,16.70
2022-12-31T15:15:20.158Z,16.70
2022-12-31T15:18:00.122Z,16.80
2022-12-31T15:20:39.104Z,16.70
2022-12-31T15:23:19.994Z,16.60
2022-12-31T15:25:49.093Z,16.50
2022-12-31T15:28:39.117Z,16.50
2022-12-31T15:31:19.432Z,16.30
2022-12-31T15:33:58.790Z,16.20
2022-12-31T15:36:29.160Z,16.20
2022-12-31T15:39:21.103Z,16.20
2022-12-31T15:42:35.599Z,16.20
2022-12-31T15:44:50.580Z,16.20
2022-12-31T15:47:43.141Z,16.20
2022-12-31T15:50:17.820Z,16.30
2022-12-31T15:52:58.294Z,16.30
2022-12-31T15:55:30.870Z,16.30
2022-12-31T15:58:07.047Z,16.20
2022-12-31T16:00:46.667Z,16.20
2022-12-31T16:03:24.113Z,16.20
2022-12-31T16:05:53.565Z,16.10
2022-12-31T16:08:22.455Z,16.10
2022-12-31T16:10:49.492Z,16.20
2022-12-31T16:13:23.618Z,16.20
2022-12-31T16:15:57.658Z,16.20
2022-12-31T16:18:24.661Z,16.20
2022-12-31T16:20:51.925Z,16.20
2022-12-31T16:23:21.079Z,16.20
2022-12-31T16:25:48.613Z,16.10
2022-12-31T16:28:20.631Z,16.30
2022-12-31T16:31:05.731Z,16.40
2022-12-31T16:33:33.161Z,16.40
2022-12-31T16:36:01.350Z,16.50
2022-12-31T16:38:32.270Z,16.40
2022-12-31T16:41:05.163Z,16.50
2022-12-31T16:43:40.232Z,16.60
2022-12-31T16:46:26.200Z,16.60
2022-12-31T16:48:55.945Z,16.50
2022-12-31T16:51:27.410Z,16.60
2022-12-31T16:53:54.916Z,16.60
2022-12-31T16:56:28.319Z,16.60
2022-12-31T16:59:04.741Z,16.70
2022-12-31T17:01:35.315Z,16.70
2022-12-31T17:04:09.679Z,16.60
2022-12-31T17:06:36.575Z,16.70
2022-12-31T17:09:21.297Z,16.60
2022-12-31T17:11:55.080Z,16.60
2022-12-31T17:14:24.452Z,16.60
2022-12-31T17:17:02.207Z,16.50
2022-12-31T17:19:49.948Z,16.40
2022-12-31T17:22:41.887Z,16.50
2022-12-31T17:25:22.978Z,16.40
2022-12-31T17:27:59.158Z,16.40
2022-12-31T17:30:40.020Z,16.60
2022-12-31T17:33:22.338Z,16.60
2022-12-31T17:36:10.297Z,16.60
2022-12-31T17:38:37.220Z,16.70
2022-12-31T17:41:15.921Z,16.60
2022-12-31T17:43:43.340Z,16.80
2022-12-31T17:46:15.934Z,16.70
2022-12-31T17:48:45.065Z,16.70
2022-12-31T17:51:12.217Z,16.70
2022-12-31T17:53:39.296Z,16.70
2022-12-31T17:56:14.272Z,16.60
2022-12-31T17:58:51.353Z,16.60
2022-12-31T18:01:21.873Z,16.60
2022-12-31T18:03:49.203Z,16.60
2022-12-31T18:06:17.351Z,16.60
2022-12-31T18:08:44.078Z,16.60
2022-12-31T18:11:18.841Z,16.40
2022-12-31T18:13:45.934Z,16.40
2022-12-31T18:16:13.345Z,16.30
2022-12-31T18:18:41.819Z,16.20
2022-12-31T18:21:34.112Z,16.20
2022-12-31T18:26:29.766Z,16.10
2022-12-31T18:28:58.158Z,16.10
2022-12-31T18:31:28.069Z,16.20
2022-12-31T18:33:57.307Z,16.10
2022-12-31T18:36:25.512Z,16.20
2022-12-31T18:38:53.051Z,16.30
2022-12-31T18:41:28.954Z,16.30
2022-12-31T18:43:55.991Z,16.20
2022-12-31T18:46:24.581Z,16.00
2022-12-31T18:48:51.534Z,15.90
2022-12-31T18:51:31.479Z,15.90
2022-12-31T18:54:00.772Z,15.80
2022-12-31T18:56:28.382Z,15.70
2022-12-31T18:58:55.289Z,15.60
2022-12-31T19:01:34.146Z,15.60
2022-12-31T19:04:15.157Z,15.50
2022-12-31T19:06:42.635Z,15.40
2022-12-31T19:09:30.663Z,15.40
2022-12-31T19:11:58.141Z,15.40
2022-12-31T19:14:26.502Z,15.30
2022-12-31T19:16:54.436Z,15.40
2022-12-31T19:19:21.690Z,15.40
2022-12-31T19:21:48.711Z,15.40
2022-12-31T19:24:16.408Z,15.40
2022-12-31T19:26:43.718Z,15.40
2022-12-31T19:29:21.227Z,15.40
2022-12-31T19:31:48.774Z,15.50
2022-12-31T19:34:15.652Z,15.50
2022-12-31T19:36:44.347Z,15.50
2022-12-31T19:39:17.522Z,15.50
2022-12-31T19:41:46.436Z,15.40
2022-12-31T19:44:18.214Z,15.40
2022-12-31T19:46:46.416Z,15.40
2022-12-31T19:49:14.350Z,15.40
2022-12-31T19:51:44.040Z,15.30
2022-12-31T19:54:13.258Z,15.20
2022-12-31T19:56:40.126Z,15.20
2022-12-31T19:59:09.234Z,15.20
2022-12-31T20:01:36.220Z,15.30
2022-12-31T20:04:03.398Z,15.30
2022-12-31T20:06:30.242Z,15.40
2022-12-31T20:08:57.088Z,15.40
2022-12-31T20:11:25.115Z,15.50
2022-12-31T20:13:53.542Z,15.70
2022-12-31T20:16:23.277Z,15.80
2022-12-31T20:18:50.581Z,15.80
2022-12-31T20:21:23.676Z,15.80
2022-12-31T20:23:51.528Z,15.80
2022-12-31T20:29:13.257Z,16.00
2022-12-31T20:31:40.119Z,16.10
2022-12-31T20:34:06.935Z,16.10
2022-12-31T20:36:33.769Z,16.00
2022-12-31T20:39:00.537Z,16.00
2022-12-31T20:41:27.464Z,16.00
2022-12-31T20:43:54.326Z,16.10
2022-12-31T20:46:24.647Z,16.10
2022-12-31T20:48:53.532Z,16.10
2022-12-31T20:51:21.921Z,16.10
2022-12-31T20:53:55.375Z,16.00
2022-12-31T20:56:23.209Z,16.10
2022-12-31T20:58:50.219Z,16.10
2022-12-31T21:01:18.406Z,16.10
2022-12-31T21:04:05.588Z,16.10
2022-12-31T21:06:37.788Z,16.00
2022-12-31T21:09:49.187Z,16.00
2022-12-31T21:12:41.912Z,16.00
2022-12-31T21:15:10.098Z,16.00
2022-12-31T21:17:36.876Z,15.90
2022-12-31T21:20:05.236Z,15.80
2022-12-31T21:22:33.771Z,15.70
2022-12-31T21:25:04.769Z,15.70
2022-12-31T21:27:31.656Z,15.80
2022-12-31T21:32:48.941Z,15.80
2022-12-31T21:38:07.491Z,15.70
2022-12-31T21:40:37.066Z,15.70
2022-12-31T21:43:04.136Z,15.60
2022-12-31T21:45:30.935Z,15.60
2022-12-31T21:48:19.640Z,15.60
2022-12-31T21:50:48.694Z,15.60
2022-12-31T21:53:23.492Z,15.70
2022-12-31T21:56:11.451Z,15.70
2022-12-31T21:58:41.128Z,15.70
2022-12-31T22:01:28.795Z,15.70
2022-12-31T22:03:55.888Z,15.60
2022-12-31T22:06:24.272Z,15.60
2022-12-31T22:08:53.618Z,15.70
2022-12-31T22:11:22.352Z,15.60
2022-12-31T22:13:49.569Z,15.60
2022-12-31T22:16:18.319Z,15.60
2022-12-31T22:18:45.439Z,15.50
2022-12-31T22:21:18.845Z,15.40
2022-12-31T22:23:47.924Z,15.40
2022-12-31T22:26:16.565Z,15.40
2022-12-31T22:28:45.025Z,15.40
2022-12-31T22:31:20.701Z,15.40
2022-12-31T22:33:47.960Z,15.30
2022-12-31T22:36:18.426Z,15.30
2022-12-31T22:38:45.911Z,15.40
2022-12-31T22:41:16.063Z,15.30
2022-12-31T22:44:03.117Z,15.30
2022-12-31T22:46:38.686Z,15.20
2022-12-31T22:49:12.881Z,15.10
2022-12-31T22:51:57.536Z,15.10
2022-12-31T22:54:29.855Z,15.00
2022-12-31T22:57:02.488Z,15.10
2022-12-31T22:59:30.405Z,15.00
2022-12-31T23:01:57.201Z,15.00
2022-12-31T23:04:24.088Z,15.00
2022-12-31T23:06:50.974Z,15.00
2022-12-31T23:09:36.814Z,15.00
2022-12-31T23:12:06.641Z,15.00
2022-12-31T23:14:52.473Z,15.00
2022-12-31T23:17:42.065Z,15.00
2022-12-31T23:20:33.076Z,15.00
2022-12-31T23:23:06.583Z,15.00
2022-12-31T23:25:35.451Z,14.90
2022-12-31T23:28:03.433Z,14.90
2022-12-31T23:30:30.481Z,14.80
2022-12-31T23:32:57.420Z,15.00
2022-12-31T23:35:24.388Z,14.90
2022-12-31T23:37:51.221Z,14.90
2022-12-31T23:40:22.118Z,14.90
2022-12-31T23:42:50.214Z,15.00
2022-12-31T23:45:17.258Z,14.90
2022-12-31T23:47:44.129Z,15.10
2022-12-31T23:50:11.154Z,15.10
2022-12-31T23:52:38.013Z,15.10
2022-12-31T23:55:05.240Z,15.00
2022-12-31T23:57:32.082Z,15.10
2022-12-31T23:59:59.131Z,15.00
